createdAt,value
2022-08-27T00:00:39.177Z,9.15
2022-08-27T00:03:10.082Z,8.05
2022-08-27T00:05:40.388Z,8.50
2022-08-27T00:08:13.248Z,8.25
2022-08-27T00:10:43.884Z,9.07
2022-08-27T00:13:13.565Z,8.43
2022-08-27T00:15:43.541Z,9.35
2022-08-27T00:18:14.422Z,9.02
2022-08-27T00:20:44.240Z,8.90
2022-08-27T00:23:13.749Z,8.88
2022-08-27T00:25:43.608Z,10.45
2022-08-27T00:28:15.224Z,9.05
2022-08-27T00:30:44.881Z,7.85
2022-08-27T00:33:15.800Z,9.27
2022-08-27T00:35:45.348Z,9.38
2022-08-27T00:38:15.320Z,9.65
2022-08-27T00:40:45.244Z,8.77
2022-08-27T00:43:15.014Z,9.10
2022-08-27T00:45:47.460Z,9.02
2022-08-27T00:48:20.151Z,8.52
2022-08-27T00:50:54.967Z,8.52
2022-08-27T00:53:32.361Z,8.63
2022-08-27T00:56:09.668Z,8.20
2022-08-27T00:58:47.452Z,9.13
2022-08-27T01:01:21.391Z,8.98
2022-08-27T01:03:59.720Z,8.48
2022-08-27T01:06:37.493Z,8.43
2022-08-27T01:09:14.251Z,8.10
2022-08-27T01:11:44.504Z,9.50
2022-08-27T01:14:14.508Z,10.35
2022-08-27T01:20:20.580Z,9.55
2022-08-27T01:23:03.228Z,8.35
2022-08-27T01:25:34.645Z,9.43
2022-08-27T01:28:06.085Z,9.90
2022-08-27T01:30:36.725Z,10.32
2022-08-27T01:33:14.506Z,9.32
2022-08-27T01:35:47.425Z,10.27
2022-08-27T01:41:03.518Z,9.15
2022-08-27T01:43:32.967Z,9.88
2022-08-27T01:46:02.498Z,10.55
2022-08-27T01:48:32.053Z,8.82
2022-08-27T01:51:01.809Z,9.15
2022-08-27T01:53:31.584Z,10.05
2022-08-27T01:56:02.411Z,9.00
2022-08-27T01:58:33.685Z,8.95
2022-08-27T02:01:09.821Z,9.57
2022-08-27T02:03:40.831Z,8.00
2022-08-27T02:06:13.145Z,7.18
2022-08-27T02:08:43.497Z,8.05
2022-08-27T02:11:14.315Z,6.35
2022-08-27T02:13:43.801Z,6.03
2022-08-27T02:16:14.472Z,5.88
2022-08-27T02:18:44.088Z,5.90
2022-08-27T02:21:15.297Z,5.95
2022-08-27T02:23:45.374Z,5.95
2022-08-27T02:26:16.733Z,4.65
2022-08-27T02:28:46.234Z,4.70
2022-08-27T02:31:18.288Z,4.63
2022-08-27T02:33:48.821Z,5.47
2022-08-27T02:36:19.286Z,4.55
2022-08-27T02:38:48.929Z,4.00
2022-08-27T02:41:20.214Z,4.43
2022-08-27T02:43:50.127Z,4.18
2022-08-27T02:46:19.782Z,3.90
2022-08-27T02:48:49.661Z,3.85
2022-08-27T02:51:19.456Z,3.90
2022-08-27T02:53:49.161Z,4.03
2022-08-27T02:56:21.919Z,4.45
2022-08-27T02:58:51.593Z,4.22
2022-08-27T03:01:21.313Z,4.68
2022-08-27T03:03:50.804Z,5.03
2022-08-27T03:06:20.297Z,5.03
2022-08-27T03:08:52.287Z,4.93
2022-08-27T03:11:24.162Z,4.82
2022-08-27T03:13:54.225Z,5.60
2022-08-27T03:16:25.746Z,5.07
2022-08-27T03:18:54.358Z,5.43
2022-08-27T03:21:27.081Z,5.60
2022-08-27T03:26:28.578Z,5.55
2022-08-27T03:28:58.303Z,6.50
2022-08-27T03:31:29.356Z,5.93
2022-08-27T03:34:06.749Z,6.13
2022-08-27T03:36:36.253Z,5.45
2022-08-27T03:39:06.511Z,5.57
2022-08-27T03:41:45.499Z,4.97
2022-08-27T03:44:25.284Z,5.32
2022-08-27T03:46:55.062Z,4.53
2022-08-27T03:49:25.189Z,4.78
2022-08-27T03:51:55.738Z,4.47
2022-08-27T03:54:26.017Z,4.85
2022-08-27T03:56:56.830Z,4.90
2022-08-27T03:59:26.313Z,4.57
2022-08-27T04:01:55.844Z,4.72
2022-08-27T04:04:25.846Z,5.40
2022-08-27T04:06:56.098Z,5.47
2022-08-27T04:09:28.688Z,5.35
2022-08-27T04:11:59.579Z,5.15
2022-08-27T04:14:29.276Z,4.82
2022-08-27T04:16:59.284Z,5.70
2022-08-27T04:19:32.257Z,6.40
2022-08-27T04:22:04.495Z,5.20
2022-08-27T04:24:36.899Z,5.50
2022-08-27T04:27:08.184Z,5.75
2022-08-27T04:29:38.128Z,5.70
2022-08-27T04:32:09.860Z,5.90
2022-08-27T04:34:39.436Z,5.85
2022-08-27T04:37:09.129Z,5.80
2022-08-27T04:39:39.540Z,6.00
2022-08-27T04:42:10.429Z,6.45
2022-08-27T04:44:40.043Z,6.25
2022-08-27T04:47:09.610Z,5.80
2022-08-27T04:49:39.308Z,5.32
2022-08-27T04:52:10.549Z,6.25
2022-08-27T04:54:41.073Z,6.25
2022-08-27T04:57:11.988Z,6.40
2022-08-27T04:59:41.579Z,5.97
2022-08-27T05:02:11.484Z,6.82
2022-08-27T05:04:42.614Z,6.40
2022-08-27T05:07:12.528Z,5.93
2022-08-27T05:09:42.156Z,6.65
2022-08-27T05:12:13.101Z,6.78
2022-08-27T05:14:42.686Z,6.38
2022-08-27T05:17:12.264Z,7.07
2022-08-27T05:19:41.821Z,6.95
2022-08-27T05:22:11.261Z,6.70
2022-08-27T05:24:40.747Z,7.30
2022-08-27T05:27:10.237Z,6.78
2022-08-27T05:29:44.377Z,7.05
2022-08-27T05:32:14.036Z,6.90
2022-08-27T05:34:43.781Z,7.28
2022-08-27T05:37:13.697Z,7.75
2022-08-27T05:39:43.174Z,8.02
2022-08-27T05:42:12.731Z,7.90
2022-08-27T05:44:43.523Z,7.93
2022-08-27T05:47:13.024Z,9.35
2022-08-27T05:49:42.532Z,7.55
2022-08-27T05:52:13.463Z,7.85
2022-08-27T05:54:42.915Z,7.50
2022-08-27T05:57:12.520Z,7.55
2022-08-27T06:00:01.011Z,8.75
2022-08-27T06:02:30.557Z,7.63
2022-08-27T06:05:00.252Z,8.50
2022-08-27T06:07:29.830Z,7.78
2022-08-27T06:10:00.281Z,8.50
2022-08-27T06:12:30.028Z,9.90
2022-08-27T06:15:01.072Z,10.65
2022-08-27T06:17:30.782Z,13.32
2022-08-27T06:20:00.272Z,10.68
2022-08-27T06:22:29.876Z,11.65
2022-08-27T06:24:59.382Z,10.95
2022-08-27T06:27:28.977Z,11.45
2022-08-27T06:29:59.838Z,11.57
2022-08-27T06:32:29.366Z,10.63
2022-08-27T06:34:59.144Z,11.15
2022-08-27T06:37:29.193Z,10.82
2022-08-27T06:39:58.716Z,10.48
2022-08-27T06:42:28.318Z,11.23
2022-08-27T06:45:00.617Z,10.27
2022-08-27T06:47:32.821Z,10.80
2022-08-27T06:50:02.948Z,10.00
2022-08-27T06:52:32.777Z,9.57
2022-08-27T06:55:02.624Z,9.00
2022-08-27T06:57:32.112Z,8.25
2022-08-27T07:00:03.768Z,9.18
2022-08-27T07:02:33.756Z,8.13
2022-08-27T07:05:03.554Z,8.52
2022-08-27T07:07:36.816Z,8.73
2022-08-27T07:10:12.056Z,7.35
2022-08-27T07:12:41.669Z,8.27
2022-08-27T07:15:13.754Z,9.13
2022-08-27T07:20:16.536Z,9.32
2022-08-27T07:22:48.338Z,9.20
2022-08-27T07:25:20.403Z,7.95
2022-08-27T07:27:50.988Z,7.47
2022-08-27T07:30:21.989Z,6.85
2022-08-27T07:32:51.825Z,8.40
2022-08-27T07:35:21.544Z,7.97
2022-08-27T07:37:51.060Z,8.57
2022-08-27T07:40:20.902Z,7.95
2022-08-27T07:43:08.228Z,7.78
2022-08-27T07:45:50.681Z,8.45
2022-08-27T07:48:20.188Z,8.25
2022-08-27T07:50:49.678Z,8.52
2022-08-27T07:53:19.393Z,8.43
2022-08-27T07:55:49.253Z,8.52
2022-08-27T07:58:18.943Z,8.98
2022-08-27T08:00:49.816Z,9.60
2022-08-27T08:03:19.346Z,8.32
2022-08-27T08:05:49.223Z,8.50
2022-08-27T08:08:18.833Z,8.50
2022-08-27T08:10:49.047Z,9.93
2022-08-27T08:13:20.488Z,8.98
2022-08-27T08:15:52.125Z,8.90
2022-08-27T08:18:23.085Z,8.65
2022-08-27T08:20:58.390Z,9.32
2022-08-27T08:23:29.157Z,8.65
2022-08-27T08:25:58.613Z,8.73
2022-08-27T08:28:30.185Z,8.18
2022-08-27T08:31:01.556Z,8.43
2022-08-27T08:33:31.689Z,7.88
2022-08-27T08:36:07.252Z,7.90
2022-08-27T08:38:37.517Z,6.95
2022-08-27T08:41:25.932Z,7.43
2022-08-27T08:43:57.006Z,7.60
2022-08-27T08:46:39.969Z,6.75
2022-08-27T08:51:54.781Z,5.93
2022-08-27T08:54:30.492Z,5.97
2022-08-27T08:57:07.889Z,6.88
2022-08-27T08:59:41.649Z,6.72
2022-08-27T09:02:16.250Z,6.13
2022-08-27T09:04:46.284Z,7.13
2022-08-27T09:07:24.793Z,7.43
2022-08-27T09:10:06.861Z,6.55
2022-08-27T09:12:36.287Z,6.40
2022-08-27T09:15:16.566Z,6.18
2022-08-27T09:17:48.860Z,5.47
2022-08-27T09:20:25.589Z,7.07
2022-08-27T09:23:06.456Z,7.00
2022-08-27T09:25:40.377Z,7.03
2022-08-27T09:28:28.814Z,6.88
2022-08-27T09:31:05.144Z,7.20
2022-08-27T09:33:44.398Z,6.88
2022-08-27T09:36:26.977Z,6.90
2022-08-27T09:39:02.706Z,7.63
2022-08-27T09:41:46.016Z,7.30
2022-08-27T09:44:22.768Z,7.28
2022-08-27T09:47:00.263Z,6.45
2022-08-27T09:49:34.600Z,7.60
2022-08-27T09:52:05.010Z,7.53
2022-08-27T09:54:43.880Z,8.35
2022-08-27T09:57:32.729Z,7.28
2022-08-27T10:00:03.122Z,7.25
2022-08-27T10:02:53.799Z,6.70
2022-08-27T10:05:32.157Z,7.13
2022-08-27T10:08:07.292Z,7.97
2022-08-27T10:10:52.956Z,7.43
2022-08-27T10:13:29.893Z,7.93
2022-08-27T10:16:37.849Z,7.93
2022-08-27T10:19:26.106Z,7.90
2022-08-27T10:22:09.540Z,8.38
2022-08-27T10:25:12.943Z,7.40
2022-08-27T10:27:55.029Z,8.32
2022-08-27T10:30:35.518Z,8.38
2022-08-27T10:33:16.755Z,8.05
2022-08-27T10:38:42.407Z,9.70
2022-08-27T10:41:27.267Z,7.55
2022-08-27T10:44:36.383Z,7.30
2022-08-27T10:47:39.197Z,8.45
2022-08-27T10:50:17.655Z,7.00
2022-08-27T10:52:54.057Z,7.68
2022-08-27T10:55:33.422Z,6.90
2022-08-27T10:58:37.974Z,6.35
2022-08-27T11:01:22.016Z,5.75
2022-08-27T11:03:56.434Z,6.10
2022-08-27T11:06:33.395Z,5.70
2022-08-27T11:09:12.769Z,4.90
2022-08-27T11:14:52.407Z,5.47
2022-08-27T11:17:33.085Z,4.78
2022-08-27T11:20:11.870Z,4.68
2022-08-27T11:22:49.262Z,5.28
2022-08-27T11:25:47.084Z,4.32
2022-08-27T11:28:20.538Z,3.78
2022-08-27T11:31:08.824Z,4.32
2022-08-27T11:33:49.510Z,5.45
2022-08-27T11:37:04.684Z,4.32
2022-08-27T11:39:57.247Z,4.45
2022-08-27T11:42:42.040Z,5.18
2022-08-27T11:45:24.548Z,4.60
2022-08-27T11:50:29.025Z,4.97
2022-08-27T11:53:05.777Z,4.47
2022-08-27T11:55:39.211Z,4.72
2022-08-27T11:58:26.315Z,4.18
2022-08-27T12:01:02.213Z,3.47
2022-08-27T12:03:37.020Z,3.78
2022-08-27T12:06:26.614Z,3.97
2022-08-27T12:09:07.914Z,3.33
2022-08-27T12:11:55.986Z,3.40
2022-08-27T12:14:44.578Z,2.95
2022-08-27T12:17:28.669Z,2.78
2022-08-27T12:20:20.042Z,2.88
2022-08-27T12:23:32.375Z,3.00
2022-08-27T12:26:22.568Z,3.15
2022-08-27T12:28:52.284Z,2.70
2022-08-27T12:31:24.159Z,2.65
2022-08-27T12:33:56.029Z,2.50
2022-08-27T12:36:29.133Z,3.13
2022-08-27T12:39:02.740Z,2.85
2022-08-27T12:41:44.071Z,2.80
2022-08-27T12:44:24.793Z,2.88
2022-08-27T12:47:02.849Z,2.97
2022-08-27T12:49:42.885Z,2.42
2022-08-27T12:52:39.377Z,2.63
2022-08-27T12:55:24.147Z,3.08
2022-08-27T12:58:14.855Z,2.58
2022-08-27T13:01:19.556Z,2.80
2022-08-27T13:03:54.145Z,3.13
2022-08-27T13:06:33.030Z,2.92
2022-08-27T13:09:07.106Z,2.80
2022-08-27T13:11:47.109Z,3.47
2022-08-27T13:14:21.416Z,2.85
2022-08-27T13:16:55.413Z,2.95
2022-08-27T13:19:32.165Z,3.60
2022-08-27T13:22:07.038Z,3.08
2022-08-27T13:24:47.191Z,3.13
2022-08-27T13:27:17.145Z,3.05
2022-08-27T13:29:46.854Z,3.22
2022-08-27T13:32:17.026Z,3.28
2022-08-27T13:34:48.013Z,3.38
2022-08-27T13:37:29.542Z,3.25
2022-08-27T13:39:59.390Z,3.53
2022-08-27T13:42:31.667Z,2.85
2022-08-27T13:45:07.648Z,4.32
2022-08-27T13:47:47.406Z,4.05
2022-08-27T13:50:25.725Z,3.75
2022-08-27T13:53:25.767Z,3.40
2022-08-27T13:55:59.100Z,3.10
2022-08-27T13:58:33.510Z,4.07
2022-08-27T14:01:13.237Z,3.28
2022-08-27T14:03:52.148Z,3.83
2022-08-27T14:06:31.400Z,3.35
2022-08-27T14:09:18.209Z,8.10
2022-08-27T14:11:49.415Z,3.40
2022-08-27T14:14:19.847Z,6.55
2022-08-27T14:17:01.858Z,3.42
2022-08-27T14:19:36.657Z,3.42
2022-08-27T14:22:06.863Z,3.08
2022-08-27T14:24:37.714Z,3.90
2022-08-27T14:27:17.434Z,3.95
2022-08-27T14:29:48.590Z,3.42
2022-08-27T14:32:19.414Z,3.42
2022-08-27T14:34:49.479Z,3.53
2022-08-27T14:37:19.096Z,5.55
2022-08-27T14:39:50.097Z,6.22
2022-08-27T14:42:20.186Z,6.70
2022-08-27T14:44:49.835Z,6.43
2022-08-27T14:47:19.663Z,6.60
2022-08-27T14:49:49.281Z,6.70
2022-08-27T14:52:18.794Z,6.82
2022-08-27T14:54:49.626Z,6.45
2022-08-27T14:57:19.440Z,7.30
2022-08-27T14:59:48.994Z,6.88
2022-08-27T15:02:20.915Z,6.63
2022-08-27T15:04:50.774Z,6.10
2022-08-27T15:07:20.734Z,5.88
2022-08-27T15:09:55.369Z,5.22
2022-08-27T15:12:26.432Z,5.90
2022-08-27T15:14:56.654Z,5.37
2022-08-27T15:17:34.643Z,5.97
2022-08-27T15:20:13.643Z,6.68
2022-08-27T15:22:52.317Z,6.90
2022-08-27T15:25:23.736Z,6.53
2022-08-27T15:27:54.189Z,6.20
2022-08-27T15:30:28.340Z,7.60
2022-08-27T15:32:58.289Z,6.70
2022-08-27T15:35:29.030Z,6.05
2022-08-27T15:37:59.915Z,7.18
2022-08-27T15:40:36.660Z,7.50
2022-08-27T15:43:08.364Z,6.38
2022-08-27T15:45:37.914Z,7.00
2022-08-27T15:48:07.873Z,6.63
2022-08-27T15:50:37.963Z,5.88
2022-08-27T15:53:10.425Z,7.00
2022-08-27T15:55:45.690Z,7.32
2022-08-27T15:58:15.275Z,6.78
2022-08-27T16:00:46.447Z,7.95
2022-08-27T16:03:17.405Z,7.50
2022-08-27T16:05:48.564Z,7.07
2022-08-27T16:08:18.348Z,7.20
2022-08-27T16:10:49.470Z,8.30
2022-08-27T16:13:19.650Z,8.05
2022-08-27T16:15:49.243Z,8.50
2022-08-27T16:18:22.412Z,8.32
2022-08-27T16:20:52.108Z,7.78
2022-08-27T16:23:22.253Z,8.02
2022-08-27T16:25:53.376Z,8.45
2022-08-27T16:28:23.702Z,8.57
2022-08-27T16:30:55.773Z,9.35
2022-08-27T16:33:26.149Z,9.15
2022-08-27T16:35:55.792Z,8.05
2022-08-27T16:38:25.300Z,8.20
2022-08-27T16:40:57.301Z,8.57
2022-08-27T16:43:29.026Z,8.10
2022-08-27T16:46:01.893Z,8.60
2022-08-27T16:48:49.315Z,7.93
2022-08-27T16:51:33.109Z,9.32
2022-08-27T16:54:07.538Z,9.55
2022-08-27T16:56:40.288Z,8.73
2022-08-27T16:59:12.983Z,8.50
2022-08-27T17:01:43.159Z,8.85
2022-08-27T17:04:21.557Z,8.57
2022-08-27T17:06:58.290Z,8.57
2022-08-27T17:09:28.026Z,8.82
2022-08-27T17:12:05.202Z,9.20
2022-08-27T17:14:37.947Z,9.77
2022-08-27T17:17:09.392Z,9.90
2022-08-27T17:19:38.700Z,7.97
2022-08-27T17:22:09.434Z,9.32
2022-08-27T17:24:39.619Z,10.15
2022-08-27T17:27:10.820Z,9.18
2022-08-27T17:29:40.444Z,8.95
2022-08-27T17:32:10.913Z,10.02
2022-08-27T17:34:40.510Z,8.93
2022-08-27T17:37:11.490Z,8.38
2022-08-27T17:39:41.279Z,9.50
2022-08-27T17:42:12.461Z,9.27
2022-08-27T17:44:41.951Z,9.82
2022-08-27T17:47:11.597Z,9.70
2022-08-27T17:49:41.139Z,8.93
2022-08-27T17:52:16.306Z,9.10
2022-08-27T17:54:50.905Z,9.50
2022-08-27T17:57:27.012Z,11.73
2022-08-27T18:00:02.757Z,9.73
2022-08-27T18:02:39.405Z,10.43
2022-08-27T18:05:13.166Z,10.48
2022-08-27T18:07:43.925Z,10.98
2022-08-27T18:10:18.369Z,10.82
2022-08-27T18:12:49.673Z,11.13
2022-08-27T18:15:24.224Z,9.80
2022-08-27T18:17:54.727Z,10.48
2022-08-27T18:20:29.292Z,11.43
2022-08-27T18:22:59.954Z,10.43
2022-08-27T18:25:35.906Z,9.40
2022-08-27T18:28:11.909Z,10.23
2022-08-27T18:30:44.237Z,10.00
2022-08-27T18:33:14.531Z,10.75
2022-08-27T18:35:44.724Z,10.07
2022-08-27T18:38:14.535Z,10.15
2022-08-27T18:40:50.014Z,11.18
2022-08-27T18:43:26.316Z,9.50
2022-08-27T18:45:55.855Z,9.68
2022-08-27T18:48:25.411Z,9.82
2022-08-27T18:50:58.908Z,10.30
2022-08-27T18:53:32.844Z,9.50
2022-08-27T18:56:04.328Z,9.02
2022-08-27T18:58:38.442Z,9.35
2022-08-27T19:01:13.272Z,8.80
2022-08-27T19:03:48.193Z,9.20
2022-08-27T19:06:20.395Z,9.82
2022-08-27T19:08:51.844Z,10.80
2022-08-27T19:11:21.466Z,9.13
2022-08-27T19:13:52.765Z,8.70
2022-08-27T19:16:32.946Z,10.50
2022-08-27T19:19:04.304Z,9.05
2022-08-27T19:21:34.158Z,10.10
2022-08-27T19:24:04.385Z,8.73
2022-08-27T19:26:34.573Z,9.00
2022-08-27T19:29:06.455Z,10.35
2022-08-27T19:31:37.925Z,8.00
2022-08-27T19:34:10.089Z,10.18
2022-08-27T19:36:44.552Z,10.13
2022-08-27T19:39:14.898Z,10.68
2022-08-27T19:41:44.439Z,10.15
2022-08-27T19:44:15.428Z,10.88
2022-08-27T19:46:44.995Z,9.27
2022-08-27T19:49:14.564Z,10.25
2022-08-27T19:51:44.098Z,9.95
2022-08-27T19:54:13.532Z,8.07
2022-08-27T19:56:43.109Z,8.95
2022-08-27T19:59:21.397Z,8.23
2022-08-27T20:01:52.717Z,7.75
2022-08-27T20:04:22.842Z,8.48
2022-08-27T20:06:53.004Z,7.70
2022-08-27T20:09:25.480Z,7.13
2022-08-27T20:11:55.099Z,7.50
2022-08-27T20:14:26.105Z,7.13
2022-08-27T20:16:55.875Z,7.00
2022-08-27T20:19:25.417Z,7.25
2022-08-27T20:21:55.081Z,6.82
2022-08-27T20:24:24.572Z,6.65
2022-08-27T20:26:56.297Z,6.65
2022-08-27T20:29:32.600Z,6.90
2022-08-27T20:32:04.142Z,8.35
2022-08-27T20:34:34.502Z,7.90
2022-08-27T20:37:05.287Z,9.68
2022-08-27T20:39:35.144Z,11.70
2022-08-27T20:42:06.056Z,12.65
2022-08-27T20:44:36.905Z,12.98
2022-08-27T20:47:07.422Z,12.20
2022-08-27T20:49:39.245Z,12.55
2022-08-27T20:52:11.728Z,12.75
2022-08-27T20:54:41.830Z,12.98
2022-08-27T20:57:11.451Z,13.30
2022-08-27T21:00:03.651Z,13.73
2022-08-27T21:02:33.409Z,13.33
2022-08-27T21:05:11.544Z,12.45
2022-08-27T21:07:42.269Z,12.63
2022-08-27T21:10:11.868Z,12.40
2022-08-27T21:12:41.676Z,12.35
2022-08-27T21:15:14.344Z,13.50
2022-08-27T21:20:17.748Z,12.90
2022-08-27T21:22:47.400Z,12.32
2022-08-27T21:25:16.913Z,13.65
2022-08-27T21:27:46.372Z,12.70
2022-08-27T21:30:17.349Z,12.48
2022-08-27T21:32:46.971Z,46.22
2022-08-27T21:35:16.890Z,19.83
2022-08-27T21:37:47.890Z,27.13
2022-08-27T21:40:19.010Z,18.95
2022-08-27T21:42:50.039Z,7.93
2022-08-27T21:45:21.260Z,5.63
2022-08-27T21:47:51.735Z,3.40
2022-08-27T21:50:24.685Z,3.00
2022-08-27T21:52:54.608Z,2.80
2022-08-27T21:55:24.592Z,2.95
2022-08-27T21:57:54.027Z,2.67
2022-08-27T22:00:43.155Z,2.75
2022-08-27T22:03:18.025Z,2.20
2022-08-27T22:05:48.533Z,1.83
2022-08-27T22:08:21.433Z,2.03
2022-08-27T22:10:57.761Z,2.28
2022-08-27T22:13:27.437Z,2.40
2022-08-27T22:15:58.445Z,1.58
2022-08-27T22:18:28.797Z,1.80
2022-08-27T22:20:59.421Z,1.58
2022-08-27T22:23:29.552Z,1.58
2022-08-27T22:25:59.446Z,1.63
2022-08-27T22:28:29.165Z,1.80
2022-08-27T22:31:00.034Z,1.73
2022-08-27T22:33:29.589Z,1.77
2022-08-27T22:35:59.116Z,1.83
2022-08-27T22:38:28.633Z,1.38
2022-08-27T22:40:58.104Z,1.92
2022-08-27T22:43:27.776Z,1.77
2022-08-27T22:45:57.413Z,1.73
2022-08-27T22:48:28.469Z,1.70
2022-08-27T22:50:58.068Z,1.70
2022-08-27T22:53:27.916Z,1.63
2022-08-27T22:55:57.637Z,1.80
2022-08-27T22:58:28.531Z,2.00
2022-08-27T23:00:58.029Z,2.10
2022-08-27T23:03:29.272Z,1.98
2022-08-27T23:05:58.930Z,2.10
2022-08-27T23:08:28.484Z,1.90
2022-08-27T23:10:58.049Z,2.58
2022-08-27T23:13:28.414Z,1.85
2022-08-27T23:15:58.119Z,1.90
2022-08-27T23:18:29.383Z,1.95
2022-08-27T23:20:59.348Z,2.15
2022-08-27T23:23:30.759Z,2.15
2022-08-27T23:26:19.277Z,1.92
2022-08-27T23:28:49.133Z,1.50
2022-08-27T23:31:19.013Z,2.60
2022-08-27T23:33:53.638Z,2.47
2022-08-27T23:36:23.665Z,2.40
2022-08-27T23:38:53.428Z,2.42
2022-08-27T23:41:23.028Z,2.30
2022-08-27T23:43:52.729Z,2.28
2022-08-27T23:46:22.348Z,2.72
2022-08-27T23:48:53.365Z,2.72
2022-08-27T23:51:23.028Z,2.17
2022-08-27T23:53:52.726Z,1.70
2022-08-27T23:56:22.312Z,1.65
2022-08-27T23:59:00.483Z,1.88
